sensor_id;sensor_type;location;lat;lon;timestamp;temperature;humidity
11214;DHT22;5664;48.606;13.456;2023-05-02T00:01:22;21.10;59.10
11214;DHT22;5664;48.606;13.456;2023-05-02T00:03:47;21.10;59.20
11214;DHT22;5664;48.606;13.456;2023-05-02T00:06:13;21.10;59.20
11214;DHT22;5664;48.606;13.456;2023-05-02T00:08:38;21.10;59.20
11214;DHT22;5664;48.606;13.456;2023-05-02T00:11:04;21.10;59.20
11214;DHT22;5664;48.606;13.456;2023-05-02T00:13:30;21.00;59.20
11214;DHT22;5664;48.606;13.456;2023-05-02T00:15:55;21.00;59.20
11214;DHT22;5664;48.606;13.456;2023-05-02T00:18:20;21.00;59.20
11214;DHT22;5664;48.606;13.456;2023-05-02T00:20:46;21.00;59.20
11214;DHT22;5664;48.606;13.456;2023-05-02T00:23:11;21.00;59.30
11214;DHT22;5664;48.606;13.456;2023-05-02T00:25:42;21.00;59.30
11214;DHT22;5664;48.606;13.456;2023-05-02T00:28:08;21.00;59.30
11214;DHT22;5664;48.606;13.456;2023-05-02T00:30:33;21.00;59.30
11214;DHT22;5664;48.606;13.456;2023-05-02T00:32:59;21.00;59.30
11214;DHT22;5664;48.606;13.456;2023-05-02T00:35:24;21.00;59.30
11214;DHT22;5664;48.606;13.456;2023-05-02T00:37:50;21.00;59.40
11214;DHT22;5664;48.606;13.456;2023-05-02T00:40:15;21.00;59.40
11214;DHT22;5664;48.606;13.456;2023-05-02T00:42:41;21.00;59.40
11214;DHT22;5664;48.606;13.456;2023-05-02T00:45:06;21.00;59.40
11214;DHT22;5664;48.606;13.456;2023-05-02T00:47:32;21.00;59.40
11214;DHT22;5664;48.606;13.456;2023-05-02T00:49:57;21.00;59.40
11214;DHT22;5664;48.606;13.456;2023-05-02T00:52:25;21.00;59.50
11214;DHT22;5664;48.606;13.456;2023-05-02T00:54:51;21.00;59.40
11214;DHT22;5664;48.606;13.456;2023-05-02T00:57:16;21.00;59.50
11214;DHT22;5664;48.606;13.456;2023-05-02T00:59:41;21.00;59.50
11214;DHT22;5664;48.606;13.456;2023-05-02T01:04:58;20.90;59.40
11214;DHT22;5664;48.606;13.456;2023-05-02T01:14:46;20.90;59.40
11214;DHT22;5664;48.606;13.456;2023-05-02T01:17:13;21.00;59.50
11214;DHT22;5664;48.606;13.456;2023-05-02T01:19:40;21.00;59.50
11214;DHT22;5664;48.606;13.456;2023-05-02T01:22:07;20.90;59.40
11214;DHT22;5664;48.606;13.456;2023-05-02T01:30:07;20.90;59.50
11214;DHT22;5664;48.606;13.456;2023-05-02T01:32:33;20.90;59.50
11214;DHT22;5664;48.606;13.456;2023-05-02T01:35:01;20.90;59.50
11214;DHT22;5664;48.606;13.456;2023-05-02T01:37:27;20.90;59.50
11214;DHT22;5664;48.606;13.456;2023-05-02T01:39:53;20.90;59.50
11214;DHT22;5664;48.606;13.456;2023-05-02T01:42:20;20.90;59.50
11214;DHT22;5664;48.606;13.456;2023-05-02T01:44:46;20.90;59.60
11214;DHT22;5664;48.606;13.456;2023-05-02T01:47:12;20.90;59.60
11214;DHT22;5664;48.606;13.456;2023-05-02T01:49:39;20.90;59.60
11214;DHT22;5664;48.606;13.456;2023-05-02T01:52:06;20.90;59.60
11214;DHT22;5664;48.606;13.456;2023-05-02T01:54:32;20.90;59.60
11214;DHT22;5664;48.606;13.456;2023-05-02T01:56:59;20.80;59.60
11214;DHT22;5664;48.606;13.456;2023-05-02T01:59:27;20.90;59.70
11214;DHT22;5664;48.606;13.456;2023-05-02T02:01:54;20.80;59.70
11214;DHT22;5664;48.606;13.456;2023-05-02T02:04:20;20.80;59.70
11214;DHT22;5664;48.606;13.456;2023-05-02T02:06:49;20.80;59.70
11214;DHT22;5664;48.606;13.456;2023-05-02T02:09:16;20.80;59.70
11214;DHT22;5664;48.606;13.456;2023-05-02T02:12:28;20.80;59.70
11214;DHT22;5664;48.606;13.456;2023-05-02T02:14:33;20.80;59.80
11214;DHT22;5664;48.606;13.456;2023-05-02T02:17:00;20.80;59.80
11214;DHT22;5664;48.606;13.456;2023-05-02T02:19:26;20.80;59.80
11214;DHT22;5664;48.606;13.456;2023-05-02T02:21:53;20.80;59.80
11214;DHT22;5664;48.606;13.456;2023-05-02T02:24:19;20.40;59.70
11214;DHT22;5664;48.606;13.456;2023-05-02T02:26:45;20.70;59.90
11214;DHT22;5664;48.606;13.456;2023-05-02T02:29:11;20.70;59.90
11214;DHT22;5664;48.606;13.456;2023-05-02T02:31:36;20.70;59.90
11214;DHT22;5664;48.606;13.456;2023-05-02T02:34:04;20.70;60.00
11214;DHT22;5664;48.606;13.456;2023-05-02T02:36:32;20.70;60.00
11214;DHT22;5664;48.606;13.456;2023-05-02T02:39:02;20.70;60.00
11214;DHT22;5664;48.606;13.456;2023-05-02T02:41:35;20.70;60.10
11214;DHT22;5664;48.606;13.456;2023-05-02T02:44:08;20.70;60.10
11214;DHT22;5664;48.606;13.456;2023-05-02T02:49:44;20.70;60.10
11214;DHT22;5664;48.606;13.456;2023-05-02T02:52:20;20.70;60.10
11214;DHT22;5664;48.606;13.456;2023-05-02T02:57:16;20.70;60.20
11214;DHT22;5664;48.606;13.456;2023-05-02T03:02:30;20.60;60.20
11214;DHT22;5664;48.606;13.456;2023-05-02T03:04:56;20.60;60.20
11214;DHT22;5664;48.606;13.456;2023-05-02T03:07:22;20.60;60.20
11214;DHT22;5664;48.606;13.456;2023-05-02T03:09:47;20.60;60.20
11214;DHT22;5664;48.606;13.456;2023-05-02T03:12:13;20.60;60.20
11214;DHT22;5664;48.606;13.456;2023-05-02T03:14:38;20.60;60.20
11214;DHT22;5664;48.606;13.456;2023-05-02T03:17:04;20.60;60.30
11214;DHT22;5664;48.606;13.456;2023-05-02T03:19:30;20.60;60.50
11214;DHT22;5664;48.606;13.456;2023-05-02T03:21:55;20.60;60.30
11214;DHT22;5664;48.606;13.456;2023-05-02T03:24:21;20.60;60.30
11214;DHT22;5664;48.606;13.456;2023-05-02T03:26:46;20.60;60.30
11214;DHT22;5664;48.606;13.456;2023-05-02T03:29:12;20.60;60.30
11214;DHT22;5664;48.606;13.456;2023-05-02T03:31:38;20.60;60.70
11214;DHT22;5664;48.606;13.456;2023-05-02T03:34:03;20.60;60.40
11214;DHT22;5664;48.606;13.456;2023-05-02T03:36:29;20.60;60.40
11214;DHT22;5664;48.606;13.456;2023-05-02T03:38:54;20.60;60.40
11214;DHT22;5664;48.606;13.456;2023-05-02T03:41:20;20.60;60.40
11214;DHT22;5664;48.606;13.456;2023-05-02T03:43:46;20.60;60.40
11214;DHT22;5664;48.606;13.456;2023-05-02T03:46:11;20.60;60.50
11214;DHT22;5664;48.606;13.456;2023-05-02T03:48:37;20.50;60.40
11214;DHT22;5664;48.606;13.456;2023-05-02T03:51:03;20.50;60.40
11214;DHT22;5664;48.606;13.456;2023-05-02T03:53:29;20.50;60.40
11214;DHT22;5664;48.606;13.456;2023-05-02T03:55:56;20.50;60.50
11214;DHT22;5664;48.606;13.456;2023-05-02T03:58:21;20.50;60.50
11214;DHT22;5664;48.606;13.456;2023-05-02T04:00:47;20.50;60.50
11214;DHT22;5664;48.606;13.456;2023-05-02T04:03:13;20.50;60.60
11214;DHT22;5664;48.606;13.456;2023-05-02T04:05:38;20.50;60.60
11214;DHT22;5664;48.606;13.456;2023-05-02T04:08:04;20.50;60.70
11214;DHT22;5664;48.606;13.456;2023-05-02T04:10:29;20.50;60.80
11214;DHT22;5664;48.606;13.456;2023-05-02T04:12:55;20.50;60.90
11214;DHT22;5664;48.606;13.456;2023-05-02T04:15:20;20.50;60.90
11214;DHT22;5664;48.606;13.456;2023-05-02T04:17:46;20.50;61.00
11214;DHT22;5664;48.606;13.456;2023-05-02T04:20:11;20.50;61.10
11214;DHT22;5664;48.606;13.456;2023-05-02T04:22:37;20.50;61.20
11214;DHT22;5664;48.606;13.456;2023-05-02T04:25:04;20.50;61.20
11214;DHT22;5664;48.606;13.456;2023-05-02T04:27:30;20.40;61.20
11214;DHT22;5664;48.606;13.456;2023-05-02T04:29:56;20.50;61.30
11214;DHT22;5664;48.606;13.456;2023-05-02T04:32:21;20.40;61.30
11214;DHT22;5664;48.606;13.456;2023-05-02T04:34:47;20.40;61.40
11214;DHT22;5664;48.606;13.456;2023-05-02T04:37:12;20.40;61.40
11214;DHT22;5664;48.606;13.456;2023-05-02T04:39:38;20.40;61.50
11214;DHT22;5664;48.606;13.456;2023-05-02T04:42:03;20.40;61.50
11214;DHT22;5664;48.606;13.456;2023-05-02T04:44:29;20.40;61.50
11214;DHT22;5664;48.606;13.456;2023-05-02T04:46:54;20.40;61.50
11214;DHT22;5664;48.606;13.456;2023-05-02T04:49:20;20.40;61.50
11214;DHT22;5664;48.606;13.456;2023-05-02T04:51:45;20.40;61.60
11214;DHT22;5664;48.606;13.456;2023-05-02T04:54:11;20.40;61.60
11214;DHT22;5664;48.606;13.456;2023-05-02T04:56:36;20.40;61.60
11214;DHT22;5664;48.606;13.456;2023-05-02T04:59:02;20.40;61.60
11214;DHT22;5664;48.606;13.456;2023-05-02T05:01:27;20.40;61.60
11214;DHT22;5664;48.606;13.456;2023-05-02T05:03:53;20.40;61.70
11214;DHT22;5664;48.606;13.456;2023-05-02T05:06:19;20.40;61.70
11214;DHT22;5664;48.606;13.456;2023-05-02T05:08:44;20.40;61.70
11214;DHT22;5664;48.606;13.456;2023-05-02T05:11:10;20.40;61.70
11214;DHT22;5664;48.606;13.456;2023-05-02T05:13:36;20.30;61.60
11214;DHT22;5664;48.606;13.456;2023-05-02T05:16:02;20.40;61.70
11214;DHT22;5664;48.606;13.456;2023-05-02T05:18:28;20.30;61.60
11214;DHT22;5664;48.606;13.456;2023-05-02T05:20:53;20.30;61.60
11214;DHT22;5664;48.606;13.456;2023-05-02T05:23:19;20.30;61.60
11214;DHT22;5664;48.606;13.456;2023-05-02T05:25:44;20.30;61.60
11214;DHT22;5664;48.606;13.456;2023-05-02T05:28:10;20.30;61.60
11214;DHT22;5664;48.606;13.456;2023-05-02T05:30:35;20.30;61.60
11214;DHT22;5664;48.606;13.456;2023-05-02T05:33:01;20.30;61.60
11214;DHT22;5664;48.606;13.456;2023-05-02T05:35:26;20.30;61.40
11214;DHT22;5664;48.606;13.456;2023-05-02T05:37:51;20.40;62.40
11214;DHT22;5664;48.606;13.456;2023-05-02T05:40:18;20.30;61.60
11214;DHT22;5664;48.606;13.456;2023-05-02T05:42:43;20.30;61.60
11214;DHT22;5664;48.606;13.456;2023-05-02T05:45:09;20.30;61.70
11214;DHT22;5664;48.606;13.456;2023-05-02T05:47:34;20.30;61.70
11214;DHT22;5664;48.606;13.456;2023-05-02T05:50:00;20.30;61.70
11214;DHT22;5664;48.606;13.456;2023-05-02T05:52:25;20.30;61.70
11214;DHT22;5664;48.606;13.456;2023-05-02T05:54:54;20.30;61.70
11214;DHT22;5664;48.606;13.456;2023-05-02T05:57:22;20.30;61.80
11214;DHT22;5664;48.606;13.456;2023-05-02T05:59:48;20.30;61.90
11214;DHT22;5664;48.606;13.456;2023-05-02T06:02:13;20.30;61.90
11214;DHT22;5664;48.606;13.456;2023-05-02T06:04:39;20.30;61.90
11214;DHT22;5664;48.606;13.456;2023-05-02T06:07:05;20.30;62.00
11214;DHT22;5664;48.606;13.456;2023-05-02T06:09:30;20.30;62.00
11214;DHT22;5664;48.606;13.456;2023-05-02T06:11:56;20.30;62.00
11214;DHT22;5664;48.606;13.456;2023-05-02T06:14:21;20.30;62.00
11214;DHT22;5664;48.606;13.456;2023-05-02T06:16:47;20.30;62.00
11214;DHT22;5664;48.606;13.456;2023-05-02T06:19:12;20.30;62.00
11214;DHT22;5664;48.606;13.456;2023-05-02T06:21:39;20.30;62.10
11214;DHT22;5664;48.606;13.456;2023-05-02T06:24:04;20.30;62.10
11214;DHT22;5664;48.606;13.456;2023-05-02T06:26:30;20.30;62.90
11214;DHT22;5664;48.606;13.456;2023-05-02T06:28:55;20.30;62.10
11214;DHT22;5664;48.606;13.456;2023-05-02T06:31:21;20.20;62.10
11214;DHT22;5664;48.606;13.456;2023-05-02T06:33:46;20.20;62.10
11214;DHT22;5664;48.606;13.456;2023-05-02T06:36:13;20.20;62.10
11214;DHT22;5664;48.606;13.456;2023-05-02T06:38:38;20.20;62.10
11214;DHT22;5664;48.606;13.456;2023-05-02T06:41:04;20.20;62.10
11214;DHT22;5664;48.606;13.456;2023-05-02T06:43:29;20.20;62.10
11214;DHT22;5664;48.606;13.456;2023-05-02T06:45:55;20.20;62.20
11214;DHT22;5664;48.606;13.456;2023-05-02T06:48:21;20.20;62.20
11214;DHT22;5664;48.606;13.456;2023-05-02T06:50:46;20.20;62.20
11214;DHT22;5664;48.606;13.456;2023-05-02T06:53:12;20.20;62.20
11214;DHT22;5664;48.606;13.456;2023-05-02T06:55:38;20.20;62.20
11214;DHT22;5664;48.606;13.456;2023-05-02T06:58:03;20.20;62.20
11214;DHT22;5664;48.606;13.456;2023-05-02T07:00:29;20.20;62.20
11214;DHT22;5664;48.606;13.456;2023-05-02T07:02:54;20.20;62.20
11214;DHT22;5664;48.606;13.456;2023-05-02T07:05:20;20.20;62.20
11214;DHT22;5664;48.606;13.456;2023-05-02T07:07:46;20.20;62.20
11214;DHT22;5664;48.606;13.456;2023-05-02T07:10:11;20.20;62.20
11214;DHT22;5664;48.606;13.456;2023-05-02T07:12:37;20.20;62.20
11214;DHT22;5664;48.606;13.456;2023-05-02T07:15:06;20.20;62.20
11214;DHT22;5664;48.606;13.456;2023-05-02T07:17:32;20.20;62.20
11214;DHT22;5664;48.606;13.456;2023-05-02T07:19:58;20.20;62.20
11214;DHT22;5664;48.606;13.456;2023-05-02T07:22:23;20.20;62.20
11214;DHT22;5664;48.606;13.456;2023-05-02T07:24:55;20.20;62.20
11214;DHT22;5664;48.606;13.456;2023-05-02T07:27:21;20.20;62.20
11214;DHT22;5664;48.606;13.456;2023-05-02T07:29:46;20.20;62.20
11214;DHT22;5664;48.606;13.456;2023-05-02T07:32:12;20.20;62.20
11214;DHT22;5664;48.606;13.456;2023-05-02T07:34:37;20.20;62.20
11214;DHT22;5664;48.606;13.456;2023-05-02T07:37:03;20.20;62.20
11214;DHT22;5664;48.606;13.456;2023-05-02T07:39:28;20.20;62.20
11214;DHT22;5664;48.606;13.456;2023-05-02T07:41:54;20.20;62.30
11214;DHT22;5664;48.606;13.456;2023-05-02T07:44:20;20.20;62.30
11214;DHT22;5664;48.606;13.456;2023-05-02T07:46:45;20.10;62.20
11214;DHT22;5664;48.606;13.456;2023-05-02T07:49:11;20.10;62.30
11214;DHT22;5664;48.606;13.456;2023-05-02T07:51:37;20.20;62.30
11214;DHT22;5664;48.606;13.456;2023-05-02T07:54:16;20.10;62.20
11214;DHT22;5664;48.606;13.456;2023-05-02T07:56:42;20.10;62.30
11214;DHT22;5664;48.606;13.456;2023-05-02T07:59:08;20.10;62.30
11214;DHT22;5664;48.606;13.456;2023-05-02T08:01:34;20.10;62.30
11214;DHT22;5664;48.606;13.456;2023-05-02T08:04:00;20.10;62.30
11214;DHT22;5664;48.606;13.456;2023-05-02T08:06:25;20.10;62.30
11214;DHT22;5664;48.606;13.456;2023-05-02T08:08:51;20.10;62.30
11214;DHT22;5664;48.606;13.456;2023-05-02T08:11:16;20.10;62.30
11214;DHT22;5664;48.606;13.456;2023-05-02T08:13:42;20.10;62.30
11214;DHT22;5664;48.606;13.456;2023-05-02T08:16:07;20.10;62.30
11214;DHT22;5664;48.606;13.456;2023-05-02T08:18:33;20.10;62.40
11214;DHT22;5664;48.606;13.456;2023-05-02T08:20:58;20.10;62.40
11214;DHT22;5664;48.606;13.456;2023-05-02T08:23:24;20.10;62.40
11214;DHT22;5664;48.606;13.456;2023-05-02T08:25:49;20.10;62.50
11214;DHT22;5664;48.606;13.456;2023-05-02T08:28:15;20.10;62.40
11214;DHT22;5664;48.606;13.456;2023-05-02T08:30:40;20.10;62.40
11214;DHT22;5664;48.606;13.456;2023-05-02T08:33:06;20.10;62.50
11214;DHT22;5664;48.606;13.456;2023-05-02T08:35:31;20.00;62.40
11214;DHT22;5664;48.606;13.456;2023-05-02T08:37:57;20.00;62.40
11214;DHT22;5664;48.606;13.456;2023-05-02T08:40:22;20.00;62.50
11214;DHT22;5664;48.606;13.456;2023-05-02T08:42:48;20.00;62.50
11214;DHT22;5664;48.606;13.456;2023-05-02T08:45:13;20.00;62.50
11214;DHT22;5664;48.606;13.456;2023-05-02T08:47:43;20.00;62.50
11214;DHT22;5664;48.606;13.456;2023-05-02T08:50:09;20.10;62.60
11214;DHT22;5664;48.606;13.456;2023-05-02T08:52:36;20.00;62.50
11214;DHT22;5664;48.606;13.456;2023-05-02T08:55:02;20.00;62.60
11214;DHT22;5664;48.606;13.456;2023-05-02T08:57:28;20.00;62.50
11214;DHT22;5664;48.606;13.456;2023-05-02T08:59:55;20.00;62.50
11214;DHT22;5664;48.606;13.456;2023-05-02T09:05:04;20.00;62.60
11214;DHT22;5664;48.606;13.456;2023-05-02T09:07:40;20.00;62.60
11214;DHT22;5664;48.606;13.456;2023-05-02T09:10:06;20.00;62.60
11214;DHT22;5664;48.606;13.456;2023-05-02T09:12:32;20.00;62.70
11214;DHT22;5664;48.606;13.456;2023-05-02T09:15:14;20.00;62.60
11214;DHT22;5664;48.606;13.456;2023-05-02T09:17:43;20.00;62.60
11214;DHT22;5664;48.606;13.456;2023-05-02T09:20:13;20.00;62.60
11214;DHT22;5664;48.606;13.456;2023-05-02T09:22:46;20.00;62.70
11214;DHT22;5664;48.606;13.456;2023-05-02T09:25:12;20.00;62.70
11214;DHT22;5664;48.606;13.456;2023-05-02T09:27:47;19.90;62.60
11214;DHT22;5664;48.606;13.456;2023-05-02T09:32:44;20.00;62.70
11214;DHT22;5664;48.606;13.456;2023-05-02T09:35:10;19.90;62.70
11214;DHT22;5664;48.606;13.456;2023-05-02T09:37:36;19.90;62.70
11214;DHT22;5664;48.606;13.456;2023-05-02T09:40:05;19.90;62.70
11214;DHT22;5664;48.606;13.456;2023-05-02T09:42:31;19.90;62.70
11214;DHT22;5664;48.606;13.456;2023-05-02T09:44:57;19.90;62.70
11214;DHT22;5664;48.606;13.456;2023-05-02T09:47:25;20.00;62.80
11214;DHT22;5664;48.606;13.456;2023-05-02T09:49:51;19.90;62.70
11214;DHT22;5664;48.606;13.456;2023-05-02T09:52:17;19.90;62.80
11214;DHT22;5664;48.606;13.456;2023-05-02T09:54:44;19.90;62.80
11214;DHT22;5664;48.606;13.456;2023-05-02T09:57:10;19.90;62.80
11214;DHT22;5664;48.606;13.456;2023-05-02T09:59:36;19.90;62.80
11214;DHT22;5664;48.606;13.456;2023-05-02T10:02:03;19.90;62.80
11214;DHT22;5664;48.606;13.456;2023-05-02T10:04:30;19.90;62.80
11214;DHT22;5664;48.606;13.456;2023-05-02T10:06:55;19.90;62.90
11214;DHT22;5664;48.606;13.456;2023-05-02T10:09:21;19.90;62.80
11214;DHT22;5664;48.606;13.456;2023-05-02T10:11:50;19.90;62.80
11214;DHT22;5664;48.606;13.456;2023-05-02T10:14:16;19.90;62.80
11214;DHT22;5664;48.606;13.456;2023-05-02T10:16:54;19.90;62.90
11214;DHT22;5664;48.606;13.456;2023-05-02T10:19:23;19.90;62.90
11214;DHT22;5664;48.606;13.456;2023-05-02T10:21:50;19.90;62.90
11214;DHT22;5664;48.606;13.456;2023-05-02T10:24:16;19.90;62.90
11214;DHT22;5664;48.606;13.456;2023-05-02T10:26:42;19.90;62.90
11214;DHT22;5664;48.606;13.456;2023-05-02T10:29:07;19.80;62.90
11214;DHT22;5664;48.606;13.456;2023-05-02T10:31:33;19.80;62.90
11214;DHT22;5664;48.606;13.456;2023-05-02T10:33:59;19.80;62.90
11214;DHT22;5664;48.606;13.456;2023-05-02T10:36:26;19.80;62.90
11214;DHT22;5664;48.606;13.456;2023-05-02T10:38:53;19.80;62.90
11214;DHT22;5664;48.606;13.456;2023-05-02T10:41:24;19.80;62.90
11214;DHT22;5664;48.606;13.456;2023-05-02T10:43:51;19.80;63.00
11214;DHT22;5664;48.606;13.456;2023-05-02T10:46:36;19.90;63.00
11214;DHT22;5664;48.606;13.456;2023-05-02T10:49:05;19.80;63.00
11214;DHT22;5664;48.606;13.456;2023-05-02T10:51:31;19.80;63.00
11214;DHT22;5664;48.606;13.456;2023-05-02T10:59:29;19.80;63.00
11214;DHT22;5664;48.606;13.456;2023-05-02T11:01:54;19.80;63.00
11214;DHT22;5664;48.606;13.456;2023-05-02T11:04:20;19.80;63.00
11214;DHT22;5664;48.606;13.456;2023-05-02T11:11:49;19.80;63.10
11214;DHT22;5664;48.606;13.456;2023-05-02T11:19:23;19.80;63.10
11214;DHT22;5664;48.606;13.456;2023-05-02T11:21:48;19.80;63.10
11214;DHT22;5664;48.606;13.456;2023-05-02T11:29:51;19.80;63.10
11214;DHT22;5664;48.606;13.456;2023-05-02T11:32:18;19.80;63.20
11214;DHT22;5664;48.606;13.456;2023-05-02T11:34:43;19.80;63.20
11214;DHT22;5664;48.606;13.456;2023-05-02T11:37:10;19.80;63.20
11214;DHT22;5664;48.606;13.456;2023-05-02T11:39:35;19.80;63.20
11214;DHT22;5664;48.606;13.456;2023-05-02T11:42:01;19.80;63.20
11214;DHT22;5664;48.606;13.456;2023-05-02T11:44:26;19.80;63.20
11214;DHT22;5664;48.606;13.456;2023-05-02T11:46:52;19.70;63.20
11214;DHT22;5664;48.606;13.456;2023-05-02T11:49:18;19.50;63.10
11214;DHT22;5664;48.606;13.456;2023-05-02T11:51:43;19.70;63.20
11214;DHT22;5664;48.606;13.456;2023-05-02T11:54:15;19.70;63.20
11214;DHT22;5664;48.606;13.456;2023-05-02T11:56:41;19.70;63.20
11214;DHT22;5664;48.606;13.456;2023-05-02T11:59:06;19.70;63.30
11214;DHT22;5664;48.606;13.456;2023-05-02T12:01:32;19.70;63.30
11214;DHT22;5664;48.606;13.456;2023-05-02T12:04:04;19.70;63.30
11214;DHT22;5664;48.606;13.456;2023-05-02T12:06:31;19.70;63.30
11214;DHT22;5664;48.606;13.456;2023-05-02T12:09:07;19.70;63.30
11214;DHT22;5664;48.606;13.456;2023-05-02T12:11:33;19.80;63.40
11214;DHT22;5664;48.606;13.456;2023-05-02T12:13:59;19.70;63.30
11214;DHT22;5664;48.606;13.456;2023-05-02T12:16:26;19.70;63.40
11214;DHT22;5664;48.606;13.456;2023-05-02T12:18:51;19.80;63.40
11214;DHT22;5664;48.606;13.456;2023-05-02T12:21:17;19.80;63.40
11214;DHT22;5664;48.606;13.456;2023-05-02T12:23:43;19.70;63.40
11214;DHT22;5664;48.606;13.456;2023-05-02T12:26:18;19.70;63.40
11214;DHT22;5664;48.606;13.456;2023-05-02T12:28:47;19.70;63.40
11214;DHT22;5664;48.606;13.456;2023-05-02T12:31:14;19.70;63.40
11214;DHT22;5664;48.606;13.456;2023-05-02T12:33:40;19.70;63.40
11214;DHT22;5664;48.606;13.456;2023-05-02T12:36:06;19.70;63.40
11214;DHT22;5664;48.606;13.456;2023-05-02T12:38:32;19.70;63.40
11214;DHT22;5664;48.606;13.456;2023-05-02T12:40:58;19.70;63.40
11214;DHT22;5664;48.606;13.456;2023-05-02T12:43:23;19.70;63.50
11214;DHT22;5664;48.606;13.456;2023-05-02T12:45:49;19.70;63.50
11214;DHT22;5664;48.606;13.456;2023-05-02T12:48:16;19.70;63.50
11214;DHT22;5664;48.606;13.456;2023-05-02T12:50:42;19.70;63.50
11214;DHT22;5664;48.606;13.456;2023-05-02T12:53:08;19.70;63.60
11214;DHT22;5664;48.606;13.456;2023-05-02T12:55:33;19.70;63.60
11214;DHT22;5664;48.606;13.456;2023-05-02T12:58:02;19.60;63.50
11214;DHT22;5664;48.606;13.456;2023-05-02T13:00:28;19.60;63.70
11214;DHT22;5664;48.606;13.456;2023-05-02T13:02:54;19.60;63.70
11214;DHT22;5664;48.606;13.456;2023-05-02T13:05:20;19.60;63.90
11214;DHT22;5664;48.606;13.456;2023-05-02T13:07:46;19.60;63.90
11214;DHT22;5664;48.606;13.456;2023-05-02T13:10:11;19.50;64.00
11214;DHT22;5664;48.606;13.456;2023-05-02T13:12:38;19.50;64.10
11214;DHT22;5664;48.606;13.456;2023-05-02T13:15:03;19.50;64.20
11214;DHT22;5664;48.606;13.456;2023-05-02T13:17:29;19.50;64.30
11214;DHT22;5664;48.606;13.456;2023-05-02T13:19:55;19.50;64.40
11214;DHT22;5664;48.606;13.456;2023-05-02T13:22:20;19.50;64.50
11214;DHT22;5664;48.606;13.456;2023-05-02T13:24:46;19.40;64.50
11214;DHT22;5664;48.606;13.456;2023-05-02T13:27:11;19.40;64.60
11214;DHT22;5664;48.606;13.456;2023-05-02T13:29:37;19.40;64.70
11214;DHT22;5664;48.606;13.456;2023-05-02T13:32:02;19.40;64.80
11214;DHT22;5664;48.606;13.456;2023-05-02T13:34:28;19.40;64.90
11214;DHT22;5664;48.606;13.456;2023-05-02T13:36:53;19.40;64.90
11214;DHT22;5664;48.606;13.456;2023-05-02T13:39:19;19.30;64.90
11214;DHT22;5664;48.606;13.456;2023-05-02T13:41:44;19.30;65.00
11214;DHT22;5664;48.606;13.456;2023-05-02T13:44:10;19.30;65.10
11214;DHT22;5664;48.606;13.456;2023-05-02T13:46:35;19.30;65.20
11214;DHT22;5664;48.606;13.456;2023-05-02T13:49:04;19.30;65.20
11214;DHT22;5664;48.606;13.456;2023-05-02T13:51:30;19.30;65.30
11214;DHT22;5664;48.606;13.456;2023-05-02T13:53:56;19.30;65.40
11214;DHT22;5664;48.606;13.456;2023-05-02T13:56:22;19.30;65.40
11214;DHT22;5664;48.606;13.456;2023-05-02T13:58:47;19.30;65.60
11214;DHT22;5664;48.606;13.456;2023-05-02T14:01:12;19.30;65.70
11214;DHT22;5664;48.606;13.456;2023-05-02T14:03:38;19.30;65.80
11214;DHT22;5664;48.606;13.456;2023-05-02T14:06:03;19.50;65.90
11214;DHT22;5664;48.606;13.456;2023-05-02T14:08:29;19.70;65.60
11214;DHT22;5664;48.606;13.456;2023-05-02T14:10:54;19.80;64.70
11214;DHT22;5664;48.606;13.456;2023-05-02T14:13:20;20.10;63.90
11214;DHT22;5664;48.606;13.456;2023-05-02T14:15:45;20.30;63.10
11214;DHT22;5664;48.606;13.456;2023-05-02T14:18:11;20.50;62.40
11214;DHT22;5664;48.606;13.456;2023-05-02T14:20:36;20.70;61.80
11214;DHT22;5664;48.606;13.456;2023-05-02T14:23:01;20.90;61.90
11214;DHT22;5664;48.606;13.456;2023-05-02T14:25:27;21.00;60.40
11214;DHT22;5664;48.606;13.456;2023-05-02T14:27:52;21.20;59.80
11214;DHT22;5664;48.606;13.456;2023-05-02T14:30:18;21.40;59.50
11214;DHT22;5664;48.606;13.456;2023-05-02T14:32:43;21.50;59.10
11214;DHT22;5664;48.606;13.456;2023-05-02T14:35:09;21.70;58.70
11214;DHT22;5664;48.606;13.456;2023-05-02T14:37:35;21.80;58.40
11214;DHT22;5664;48.606;13.456;2023-05-02T14:40:00;21.90;58.10
11214;DHT22;5664;48.606;13.456;2023-05-02T14:42:26;22.00;57.80
11214;DHT22;5664;48.606;13.456;2023-05-02T14:44:51;22.10;57.60
11214;DHT22;5664;48.606;13.456;2023-05-02T14:47:17;22.20;57.40
11214;DHT22;5664;48.606;13.456;2023-05-02T14:49:43;22.20;57.10
11214;DHT22;5664;48.606;13.456;2023-05-02T14:52:08;22.30;57.00
11214;DHT22;5664;48.606;13.456;2023-05-02T14:54:34;22.40;56.80
11214;DHT22;5664;48.606;13.456;2023-05-02T14:57:00;22.50;56.70
11214;DHT22;5664;48.606;13.456;2023-05-02T14:59:28;22.50;56.60
11214;DHT22;5664;48.606;13.456;2023-05-02T15:01:54;22.50;56.50
11214;DHT22;5664;48.606;13.456;2023-05-02T15:04:19;22.60;56.30
11214;DHT22;5664;48.606;13.456;2023-05-02T15:06:44;22.60;56.20
11214;DHT22;5664;48.606;13.456;2023-05-02T15:09:12;22.60;56.10
11214;DHT22;5664;48.606;13.456;2023-05-02T15:11:38;22.70;56.00
11214;DHT22;5664;48.606;13.456;2023-05-02T15:14:03;22.70;56.00
11214;DHT22;5664;48.606;13.456;2023-05-02T15:16:29;22.80;55.90
11214;DHT22;5664;48.606;13.456;2023-05-02T15:18:54;22.80;55.90
11214;DHT22;5664;48.606;13.456;2023-05-02T15:21:20;22.80;55.80
11214;DHT22;5664;48.606;13.456;2023-05-02T15:23:45;22.80;55.80
11214;DHT22;5664;48.606;13.456;2023-05-02T15:26:11;22.80;55.70
11214;DHT22;5664;48.606;13.456;2023-05-02T15:28:37;22.90;55.70
11214;DHT22;5664;48.606;13.456;2023-05-02T15:31:02;22.80;55.60
11214;DHT22;5664;48.606;13.456;2023-05-02T15:33:28;22.90;55.60
11214;DHT22;5664;48.606;13.456;2023-05-02T15:35:55;22.90;55.60
11214;DHT22;5664;48.606;13.456;2023-05-02T15:38:20;22.90;55.50
11214;DHT22;5664;48.606;13.456;2023-05-02T15:40:54;22.90;55.50
11214;DHT22;5664;48.606;13.456;2023-05-02T15:43:20;23.00;55.60
11214;DHT22;5664;48.606;13.456;2023-05-02T15:45:49;22.90;55.50
11214;DHT22;5664;48.606;13.456;2023-05-02T15:48:15;23.00;55.50
11214;DHT22;5664;48.606;13.456;2023-05-02T15:50:41;23.00;55.50
11214;DHT22;5664;48.606;13.456;2023-05-02T15:53:06;23.00;55.50
11214;DHT22;5664;48.606;13.456;2023-05-02T15:55:32;23.00;55.50
11214;DHT22;5664;48.606;13.456;2023-05-02T15:57:57;23.00;55.50
11214;DHT22;5664;48.606;13.456;2023-05-02T16:00:23;23.00;55.50
11214;DHT22;5664;48.606;13.456;2023-05-02T16:02:48;23.00;55.40
11214;DHT22;5664;48.606;13.456;2023-05-02T16:05:14;23.00;55.40
11214;DHT22;5664;48.606;13.456;2023-05-02T16:07:39;23.00;55.40
11214;DHT22;5664;48.606;13.456;2023-05-02T16:10:05;23.00;55.40
11214;DHT22;5664;48.606;13.456;2023-05-02T16:12:31;23.00;55.30
11214;DHT22;5664;48.606;13.456;2023-05-02T16:14:57;23.00;55.30